createdAt,value
2022-08-27T00:02:31.097Z,69.82
2022-08-27T00:08:12.679Z,70.14
2022-08-27T00:13:34.961Z,70.34
2022-08-27T00:18:59.512Z,70.48
2022-08-27T00:24:33.236Z,70.66
2022-08-27T00:30:02.111Z,70.80
2022-08-27T00:35:27.232Z,70.88
2022-08-27T00:40:36.110Z,71.08
2022-08-27T00:46:20.368Z,71.11
2022-08-27T00:52:59.385Z,71.28
2022-08-27T00:58:54.395Z,71.47
2022-08-27T01:04:02.693Z,71.66
2022-08-27T01:09:56.109Z,71.70
2022-08-27T01:15:39.397Z,71.89
2022-08-27T01:21:59.970Z,71.95
2022-08-27T01:28:41.388Z,71.70
2022-08-27T01:34:20.915Z,71.67
2022-08-27T01:39:59.357Z,71.65
2022-08-27T01:45:35.467Z,71.69
2022-08-27T01:51:30.698Z,71.91
2022-08-27T01:57:13.764Z,72.08
2022-08-27T02:02:29.953Z,72.19
2022-08-27T02:07:38.958Z,72.42
2022-08-27T02:12:54.115Z,72.54
2022-08-27T02:18:19.785Z,72.70
2022-08-27T02:24:21.975Z,72.85
2022-08-27T02:30:07.877Z,72.92
2022-08-27T02:35:43.003Z,73.08
2022-08-27T02:41:36.995Z,73.20
2022-08-27T02:47:22.282Z,73.16
2022-08-27T02:53:06.118Z,73.46
2022-08-27T02:58:28.002Z,73.60
2022-08-27T03:03:35.992Z,73.72
2022-08-27T03:08:55.519Z,73.74
2022-08-27T03:14:17.901Z,73.76
2022-08-27T03:20:18.012Z,73.85
2022-08-27T03:26:10.834Z,74.11
2022-08-27T03:31:38.027Z,74.23
2022-08-27T03:37:03.942Z,74.49
2022-08-27T03:42:31.308Z,74.62
2022-08-27T03:47:52.367Z,74.85
2022-08-27T03:53:47.946Z,75.09
2022-08-27T03:59:16.498Z,75.16
2022-08-27T04:04:48.875Z,75.49
2022-08-27T04:10:34.806Z,75.76
2022-08-27T04:16:05.599Z,75.84
2022-08-27T04:21:33.275Z,75.93
2022-08-27T04:27:07.477Z,76.16
2022-08-27T04:33:28.601Z,76.25
2022-08-27T04:40:06.244Z,76.17
2022-08-27T04:46:52.398Z,76.72
2022-08-27T04:53:13.847Z,77.23
2022-08-27T04:58:44.068Z,77.45
2022-08-27T05:05:14.209Z,77.55
2022-08-27T05:11:35.854Z,77.66
2022-08-27T05:17:32.314Z,77.71
2022-08-27T05:24:34.409Z,77.57
2022-08-27T05:30:13.785Z,77.25
2022-08-27T05:35:44.127Z,77.02
2022-08-27T05:41:21.978Z,76.86
2022-08-27T05:46:40.268Z,77.02
2022-08-27T05:52:13.122Z,76.94
2022-08-27T05:57:21.974Z,76.57
2022-08-27T06:02:30.332Z,76.31
2022-08-27T06:08:24.756Z,75.78
2022-08-27T06:13:33.625Z,75.53
2022-08-27T06:18:58.333Z,75.56
2022-08-27T06:24:39.416Z,75.44
2022-08-27T06:29:50.917Z,75.10
2022-08-27T06:34:53.710Z,75.22
2022-08-27T06:40:16.412Z,74.97
2022-08-27T06:45:27.221Z,75.05
2022-08-27T06:50:29.687Z,74.65
2022-08-27T06:55:50.707Z,74.61
2022-08-27T07:01:39.513Z,74.19
2022-08-27T07:07:28.065Z,73.86
2022-08-27T07:13:03.377Z,73.73
2022-08-27T07:18:05.749Z,73.66
2022-08-27T07:23:20.108Z,73.34
2022-08-27T07:28:30.009Z,73.18
2022-08-27T07:33:52.601Z,72.99
2022-08-27T07:39:15.833Z,72.90
2022-08-27T07:44:31.016Z,72.31
2022-08-27T07:49:52.578Z,72.20
2022-08-27T07:55:09.567Z,71.97
2022-08-27T08:00:28.897Z,71.70
2022-08-27T08:05:33.549Z,71.56
2022-08-27T08:10:41.014Z,71.45
2022-08-27T08:15:57.111Z,71.41
2022-08-27T08:21:25.189Z,70.54
2022-08-27T08:26:52.980Z,69.21
2022-08-27T08:31:55.868Z,69.55
2022-08-27T08:37:04.476Z,69.37
2022-08-27T08:42:59.149Z,69.40
2022-08-27T08:48:34.816Z,68.35
2022-08-27T08:54:07.311Z,67.74
2022-08-27T08:59:50.971Z,67.14
2022-08-27T09:05:07.809Z,67.10
2022-08-27T09:10:42.844Z,66.52
2022-08-27T09:16:05.777Z,65.86
2022-08-27T09:22:20.298Z,65.06
2022-08-27T09:27:44.603Z,64.83
2022-08-27T09:33:07.831Z,64.28
2022-08-27T09:39:23.526Z,64.03
2022-08-27T09:44:53.649Z,63.58
2022-08-27T09:50:49.148Z,63.07
2022-08-27T09:56:25.555Z,62.97
2022-08-27T10:02:21.256Z,62.63
2022-08-27T10:09:17.913Z,60.91
2022-08-27T10:15:18.320Z,59.36
2022-08-27T10:20:42.977Z,58.93
2022-08-27T10:25:56.949Z,58.10
2022-08-27T10:31:25.509Z,57.97
2022-08-27T10:36:42.553Z,57.33
2022-08-27T10:42:03.418Z,56.31
2022-08-27T10:47:21.390Z,56.23
2022-08-27T10:52:51.583Z,55.95
2022-08-27T10:58:29.381Z,56.00
2022-08-27T11:03:45.985Z,55.85
2022-08-27T11:08:58.019Z,55.65
2022-08-27T11:14:08.465Z,55.38
2022-08-27T11:19:44.258Z,54.89
2022-08-27T11:24:57.590Z,55.29
2022-08-27T11:30:08.676Z,54.46
2022-08-27T11:35:44.425Z,53.50
2022-08-27T11:41:54.427Z,52.79
2022-08-27T11:47:11.023Z,51.45
2022-08-27T11:52:25.610Z,51.17
2022-08-27T11:57:37.595Z,51.41
2022-08-27T12:02:40.667Z,51.37
2022-08-27T12:08:10.931Z,50.43
2022-08-27T12:13:43.279Z,50.85
2022-08-27T12:18:53.497Z,51.79
2022-08-27T12:24:20.717Z,52.67
2022-08-27T12:29:47.008Z,53.59
2022-08-27T12:35:13.428Z,54.69
2022-08-27T12:40:31.696Z,55.36
2022-08-27T12:46:02.444Z,55.77
2022-08-27T12:51:22.323Z,56.58
2022-08-27T12:56:46.808Z,56.74
2022-08-27T13:02:10.121Z,57.35
2022-08-27T13:07:13.182Z,57.63
2022-08-27T13:12:18.245Z,57.52
2022-08-27T13:17:42.516Z,56.54
2022-08-27T13:23:09.179Z,55.73
2022-08-27T13:28:35.718Z,56.20
2022-08-27T13:34:03.800Z,53.71
2022-08-27T13:39:12.022Z,52.33
2022-08-27T13:44:38.945Z,53.02
2022-08-27T13:50:12.310Z,53.77
2022-08-27T13:55:50.699Z,54.61
2022-08-27T14:01:16.336Z,54.93
2022-08-27T14:06:46.614Z,55.01
2022-08-27T14:12:03.428Z,55.18
2022-08-27T14:17:08.951Z,54.58
2022-08-27T14:22:11.823Z,54.39
2022-08-27T14:27:17.041Z,54.48
2022-08-27T14:32:21.354Z,55.00
2022-08-27T14:37:24.209Z,54.42
2022-08-27T14:42:28.910Z,53.60
2022-08-27T14:47:39.476Z,54.34
2022-08-27T14:52:42.102Z,53.93
2022-08-27T14:57:51.345Z,53.41
2022-08-27T15:02:59.365Z,53.23
2022-08-27T15:08:13.487Z,52.23
2022-08-27T15:13:31.384Z,51.53
2022-08-27T15:19:00.951Z,50.80
2022-08-27T15:24:19.693Z,50.92
2022-08-27T15:29:21.631Z,51.05
2022-08-27T15:34:23.547Z,51.33
2022-08-27T15:39:29.312Z,51.89
2022-08-27T15:44:40.610Z,52.81
2022-08-27T15:49:56.901Z,53.32
2022-08-27T15:55:20.387Z,53.84
2022-08-27T16:00:54.539Z,53.79
2022-08-27T16:06:05.989Z,54.38
2022-08-27T16:11:08.478Z,54.96
2022-08-27T16:16:12.334Z,55.80
2022-08-27T16:21:19.916Z,55.34
2022-08-27T16:26:52.674Z,55.10
2022-08-27T16:32:02.044Z,55.58
2022-08-27T16:37:14.565Z,56.15
2022-08-27T16:42:45.372Z,56.21
2022-08-27T16:48:08.648Z,56.47
2022-08-27T16:53:15.115Z,57.01
2022-08-27T16:58:38.320Z,57.46
2022-08-27T17:09:35.699Z,58.15
2022-08-27T17:14:38.143Z,58.88
2022-08-27T17:20:23.783Z,59.52
2022-08-27T17:25:41.621Z,59.96
2022-08-27T17:30:46.963Z,60.63
2022-08-27T17:36:01.160Z,61.00
2022-08-27T17:41:10.123Z,61.24
2022-08-27T17:46:22.145Z,61.81
2022-08-27T17:51:30.779Z,62.54
2022-08-27T17:56:34.279Z,63.00
2022-08-27T18:01:41.551Z,63.55
2022-08-27T18:06:57.242Z,63.80
2022-08-27T18:12:03.426Z,64.33
2022-08-27T18:17:13.812Z,64.64
2022-08-27T18:22:16.381Z,65.20
2022-08-27T18:27:27.803Z,65.60
2022-08-27T18:32:40.564Z,66.12
2022-08-27T18:38:11.687Z,66.93
2022-08-27T18:43:45.349Z,67.44
2022-08-27T18:49:23.477Z,68.09
2022-08-27T18:55:02.409Z,68.51
2022-08-27T19:00:27.886Z,68.92
2022-08-27T19:05:30.481Z,69.26
2022-08-27T19:10:33.051Z,69.66
2022-08-27T19:15:36.929Z,70.02
2022-08-27T19:20:48.517Z,70.25
2022-08-27T19:25:55.555Z,70.47
2022-08-27T19:31:00.826Z,70.82
2022-08-27T19:36:03.780Z,71.45
2022-08-27T19:41:06.203Z,71.77
2022-08-27T19:46:10.871Z,72.13
2022-08-27T19:51:22.586Z,72.57
2022-08-27T19:56:39.351Z,72.73
2022-08-27T20:01:55.913Z,73.00
2022-08-27T20:07:02.556Z,73.23
2022-08-27T20:12:08.193Z,73.55
2022-08-27T20:17:15.199Z,74.16
2022-08-27T20:22:19.035Z,74.82
2022-08-27T20:27:24.143Z,75.42
2022-08-27T20:32:31.066Z,75.67
2022-08-27T20:37:40.059Z,75.94
2022-08-27T20:42:44.705Z,76.49
2022-08-27T20:47:57.727Z,77.01
2022-08-27T20:53:13.024Z,77.64
2022-08-27T20:58:34.347Z,78.03
2022-08-27T21:04:04.937Z,78.41
2022-08-27T21:09:24.480Z,78.81
2022-08-27T21:15:17.198Z,79.17
2022-08-27T21:20:19.579Z,79.27
2022-08-27T21:25:33.470Z,79.53
2022-08-27T21:30:48.925Z,79.89
2022-08-27T21:35:59.041Z,80.23
2022-08-27T21:42:02.065Z,80.52
2022-08-27T21:47:17.438Z,80.75
2022-08-27T21:52:49.485Z,80.95
2022-08-27T21:58:06.285Z,81.40
2022-08-27T22:03:11.137Z,81.82
2022-08-27T22:08:49.751Z,82.15
2022-08-27T22:13:53.475Z,82.42
2022-08-27T22:18:58.738Z,82.72
2022-08-27T22:24:12.596Z,83.02
2022-08-27T22:29:38.549Z,83.47
2022-08-27T22:35:16.265Z,83.67
2022-08-27T22:40:40.411Z,83.94
2022-08-27T22:45:42.890Z,84.51
2022-08-27T22:50:45.145Z,84.73
2022-08-27T22:55:50.809Z,85.06
2022-08-27T23:01:36.546Z,85.39
2022-08-27T23:07:34.332Z,85.61
2022-08-27T23:12:57.280Z,86.12
2022-08-27T23:18:08.980Z,87.08
2022-08-27T23:24:18.001Z,87.41
2022-08-27T23:29:36.511Z,87.84
2022-08-27T23:34:52.594Z,87.97
2022-08-27T23:40:00.731Z,87.99
2022-08-27T23:45:45.508Z,87.80
2022-08-27T23:50:52.100Z,87.69
2022-08-27T23:56:31.527Z,87.93
